sensor_id;sensor_type;location;lat;lon;timestamp;P1;durP1;ratioP1;P2;durP2;ratioP2
24357;SDS011;13668;52.154;5.580;2023-06-10T00:01:59;4.25;;;2.72;;
24357;SDS011;13668;52.154;5.580;2023-06-10T00:04:26;5.32;;;2.55;;
24357;SDS011;13668;52.154;5.580;2023-06-10T00:06:52;3.58;;;2.58;;
24357;SDS011;13668;52.154;5.580;2023-06-10T00:09:18;4.30;;;3.22;;
24357;SDS011;13668;52.154;5.580;2023-06-10T00:11:46;4.68;;;2.70;;
24357;SDS011;13668;52.154;5.580;2023-06-10T00:14:12;4.40;;;3.03;;
24357;SDS011;13668;52.154;5.580;2023-06-10T00:16:38;6.50;;;4.05;;
24357;SDS011;13668;52.154;5.580;2023-06-10T00:19:04;6.28;;;4.22;;
24357;SDS011;13668;52.154;5.580;2023-06-10T00:21:31;4.57;;;3.83;;
24357;SDS011;13668;52.154;5.580;2023-06-10T00:24:02;6.47;;;4.80;;
24357;SDS011;13668;52.154;5.580;2023-06-10T00:26:28;6.75;;;4.25;;
24357;SDS011;13668;52.154;5.580;2023-06-10T00:28:54;6.95;;;4.45;;
24357;SDS011;13668;52.154;5.580;2023-06-10T00:31:20;8.90;;;4.72;;
24357;SDS011;13668;52.154;5.580;2023-06-10T00:33:46;7.47;;;5.40;;
24357;SDS011;13668;52.154;5.580;2023-06-10T00:36:12;9.80;;;5.20;;
24357;SDS011;13668;52.154;5.580;2023-06-10T00:38:38;8.65;;;4.78;;
24357;SDS011;13668;52.154;5.580;2023-06-10T00:41:05;6.75;;;4.30;;
24357;SDS011;13668;52.154;5.580;2023-06-10T00:43:31;6.95;;;4.70;;
24357;SDS011;13668;52.154;5.580;2023-06-10T00:45:57;7.68;;;4.82;;
24357;SDS011;13668;52.154;5.580;2023-06-10T00:48:24;6.93;;;4.88;;
24357;SDS011;13668;52.154;5.580;2023-06-10T00:50:50;7.20;;;4.70;;
24357;SDS011;13668;52.154;5.580;2023-06-10T00:53:16;9.88;;;4.82;;
24357;SDS011;13668;52.154;5.580;2023-06-10T00:55:42;6.88;;;4.60;;
24357;SDS011;13668;52.154;5.580;2023-06-10T00:58:08;7.57;;;4.47;;
24357;SDS011;13668;52.154;5.580;2023-06-10T01:00:34;5.38;;;4.10;;
24357;SDS011;13668;52.154;5.580;2023-06-10T01:03:00;6.30;;;3.97;;
24357;SDS011;13668;52.154;5.580;2023-06-10T01:05:26;3.75;;;3.35;;
24357;SDS011;13668;52.154;5.580;2023-06-10T01:13:00;7.05;;;3.72;;
24357;SDS011;13668;52.154;5.580;2023-06-10T01:15:28;4.57;;;2.85;;
24357;SDS011;13668;52.154;5.580;2023-06-10T01:18:04;5.15;;;3.13;;
24357;SDS011;13668;52.154;5.580;2023-06-10T01:20:33;3.88;;;2.70;;
24357;SDS011;13668;52.154;5.580;2023-06-10T01:23:01;4.57;;;2.45;;
24357;SDS011;13668;52.154;5.580;2023-06-10T01:25:28;6.43;;;2.97;;
24357;SDS011;13668;52.154;5.580;2023-06-10T01:28:10;4.13;;;2.72;;
24357;SDS011;13668;52.154;5.580;2023-06-10T01:33:13;6.30;;;2.67;;
24357;SDS011;13668;52.154;5.580;2023-06-10T01:35:42;5.07;;;2.80;;
24357;SDS011;13668;52.154;5.580;2023-06-10T01:38:09;2.42;;;2.22;;
24357;SDS011;13668;52.154;5.580;2023-06-10T01:40:36;3.53;;;3.13;;
24357;SDS011;13668;52.154;5.580;2023-06-10T01:43:02;2.45;;;1.95;;
24357;SDS011;13668;52.154;5.580;2023-06-10T01:45:28;4.97;;;2.70;;
24357;SDS011;13668;52.154;5.580;2023-06-10T01:47:54;2.47;;;2.28;;
24357;SDS011;13668;52.154;5.580;2023-06-10T01:50:20;2.78;;;2.25;;
24357;SDS011;13668;52.154;5.580;2023-06-10T01:52:46;3.25;;;2.63;;
24357;SDS011;13668;52.154;5.580;2023-06-10T01:55:12;5.18;;;3.20;;
24357;SDS011;13668;52.154;5.580;2023-06-10T01:57:38;2.88;;;2.58;;
24357;SDS011;13668;52.154;5.580;2023-06-10T02:00:04;3.53;;;2.20;;
24357;SDS011;13668;52.154;5.580;2023-06-10T02:02:30;3.40;;;2.30;;
24357;SDS011;13668;52.154;5.580;2023-06-10T02:04:56;3.10;;;1.90;;
24357;SDS011;13668;52.154;5.580;2023-06-10T02:07:22;3.95;;;2.53;;
24357;SDS011;13668;52.154;5.580;2023-06-10T02:09:48;3.17;;;2.22;;
24357;SDS011;13668;52.154;5.580;2023-06-10T02:12:14;2.03;;;1.77;;
24357;SDS011;13668;52.154;5.580;2023-06-10T02:14:40;3.65;;;2.28;;
24357;SDS011;13668;52.154;5.580;2023-06-10T02:17:06;4.22;;;2.58;;
24357;SDS011;13668;52.154;5.580;2023-06-10T02:19:32;3.22;;;2.05;;
24357;SDS011;13668;52.154;5.580;2023-06-10T02:22:01;3.72;;;2.72;;
24357;SDS011;13668;52.154;5.580;2023-06-10T02:24:27;3.15;;;2.22;;
24357;SDS011;13668;52.154;5.580;2023-06-10T02:26:53;2.35;;;2.15;;
24357;SDS011;13668;52.154;5.580;2023-06-10T02:29:20;4.50;;;3.08;;
24357;SDS011;13668;52.154;5.580;2023-06-10T02:31:46;2.85;;;2.35;;
24357;SDS011;13668;52.154;5.580;2023-06-10T02:34:12;2.97;;;2.05;;
24357;SDS011;13668;52.154;5.580;2023-06-10T02:36:38;2.42;;;2.13;;
24357;SDS011;13668;52.154;5.580;2023-06-10T02:39:04;2.45;;;2.25;;
24357;SDS011;13668;52.154;5.580;2023-06-10T02:41:30;4.70;;;2.47;;
24357;SDS011;13668;52.154;5.580;2023-06-10T02:43:56;2.88;;;2.33;;
24357;SDS011;13668;52.154;5.580;2023-06-10T02:46:22;3.08;;;2.55;;
24357;SDS011;13668;52.154;5.580;2023-06-10T02:48:48;5.05;;;2.17;;
24357;SDS011;13668;52.154;5.580;2023-06-10T02:51:16;3.78;;;2.55;;
24357;SDS011;13668;52.154;5.580;2023-06-10T02:53:42;2.45;;;2.25;;
24357;SDS011;13668;52.154;5.580;2023-06-10T02:56:08;2.42;;;1.80;;
24357;SDS011;13668;52.154;5.580;2023-06-10T02:58:34;3.17;;;2.10;;
24357;SDS011;13668;52.154;5.580;2023-06-10T03:01:00;2.85;;;2.13;;
24357;SDS011;13668;52.154;5.580;2023-06-10T03:03:26;3.63;;;2.50;;
24357;SDS011;13668;52.154;5.580;2023-06-10T03:05:52;2.85;;;2.17;;
24357;SDS011;13668;52.154;5.580;2023-06-10T03:08:18;2.88;;;2.55;;
24357;SDS011;13668;52.154;5.580;2023-06-10T03:10:44;3.67;;;2.75;;
24357;SDS011;13668;52.154;5.580;2023-06-10T03:13:10;3.08;;;2.67;;
24357;SDS011;13668;52.154;5.580;2023-06-10T03:15:36;4.30;;;2.53;;
24357;SDS011;13668;52.154;5.580;2023-06-10T03:18:02;3.50;;;2.58;;
24357;SDS011;13668;52.154;5.580;2023-06-10T03:20:28;2.50;;;2.05;;
24357;SDS011;13668;52.154;5.580;2023-06-10T03:22:54;3.50;;;2.50;;
24357;SDS011;13668;52.154;5.580;2023-06-10T03:25:20;4.05;;;2.67;;
24357;SDS011;13668;52.154;5.580;2023-06-10T03:27:46;2.78;;;2.05;;
24357;SDS011;13668;52.154;5.580;2023-06-10T03:30:13;4.50;;;2.67;;
24357;SDS011;13668;52.154;5.580;2023-06-10T03:32:39;4.00;;;2.70;;
24357;SDS011;13668;52.154;5.580;2023-06-10T03:35:06;3.45;;;2.28;;
24357;SDS011;13668;52.154;5.580;2023-06-10T03:37:32;3.03;;;2.10;;
24357;SDS011;13668;52.154;5.580;2023-06-10T03:39:58;3.17;;;2.80;;
24357;SDS011;13668;52.154;5.580;2023-06-10T03:42:24;3.80;;;2.63;;
24357;SDS011;13668;52.154;5.580;2023-06-10T03:44:50;2.75;;;2.08;;
24357;SDS011;13668;52.154;5.580;2023-06-10T03:47:16;4.53;;;2.65;;
24357;SDS011;13668;52.154;5.580;2023-06-10T03:49:42;3.78;;;3.08;;
24357;SDS011;13668;52.154;5.580;2023-06-10T03:52:08;3.40;;;2.03;;
24357;SDS011;13668;52.154;5.580;2023-06-10T03:54:34;3.33;;;2.70;;
24357;SDS011;13668;52.154;5.580;2023-06-10T03:57:00;5.47;;;2.63;;
24357;SDS011;13668;52.154;5.580;2023-06-10T03:59:27;4.15;;;2.38;;
24357;SDS011;13668;52.154;5.580;2023-06-10T04:01:53;3.70;;;2.55;;
24357;SDS011;13668;52.154;5.580;2023-06-10T04:04:20;3.38;;;2.75;;
24357;SDS011;13668;52.154;5.580;2023-06-10T04:06:46;2.78;;;2.55;;
24357;SDS011;13668;52.154;5.580;2023-06-10T04:09:12;3.33;;;2.80;;
24357;SDS011;13668;52.154;5.580;2023-06-10T04:11:38;5.15;;;3.10;;
24357;SDS011;13668;52.154;5.580;2023-06-10T04:14:04;4.20;;;2.47;;
24357;SDS011;13668;52.154;5.580;2023-06-10T04:16:30;2.42;;;2.10;;
24357;SDS011;13668;52.154;5.580;2023-06-10T04:18:56;3.83;;;2.30;;
24357;SDS011;13668;52.154;5.580;2023-06-10T04:21:22;3.10;;;1.98;;
24357;SDS011;13668;52.154;5.580;2023-06-10T04:23:49;4.63;;;2.70;;
24357;SDS011;13668;52.154;5.580;2023-06-10T04:26:16;5.88;;;2.38;;
24357;SDS011;13668;52.154;5.580;2023-06-10T04:28:45;3.45;;;2.78;;
24357;SDS011;13668;52.154;5.580;2023-06-10T04:31:11;3.58;;;2.72;;
24357;SDS011;13668;52.154;5.580;2023-06-10T04:33:37;3.13;;;2.83;;
24357;SDS011;13668;52.154;5.580;2023-06-10T04:36:03;4.85;;;2.72;;
24357;SDS011;13668;52.154;5.580;2023-06-10T04:38:31;3.70;;;2.20;;
24357;SDS011;13668;52.154;5.580;2023-06-10T04:40:57;2.85;;;2.30;;
24357;SDS011;13668;52.154;5.580;2023-06-10T04:43:23;3.25;;;2.90;;
24357;SDS011;13668;52.154;5.580;2023-06-10T04:45:49;5.13;;;2.70;;
24357;SDS011;13668;52.154;5.580;2023-06-10T04:48:15;3.95;;;2.67;;
24357;SDS011;13668;52.154;5.580;2023-06-10T04:50:42;3.33;;;2.92;;
24357;SDS011;13668;52.154;5.580;2023-06-10T04:53:08;6.50;;;3.08;;
24357;SDS011;13668;52.154;5.580;2023-06-10T04:55:34;4.07;;;3.00;;
24357;SDS011;13668;52.154;5.580;2023-06-10T04:58:01;3.88;;;2.95;;
24357;SDS011;13668;52.154;5.580;2023-06-10T05:00:27;4.28;;;2.83;;
24357;SDS011;13668;52.154;5.580;2023-06-10T05:02:53;4.20;;;2.50;;
24357;SDS011;13668;52.154;5.580;2023-06-10T05:05:19;2.95;;;2.08;;
24357;SDS011;13668;52.154;5.580;2023-06-10T05:07:45;3.17;;;2.35;;
24357;SDS011;13668;52.154;5.580;2023-06-10T05:10:11;5.03;;;2.90;;
24357;SDS011;13668;52.154;5.580;2023-06-10T05:12:38;3.17;;;2.80;;
24357;SDS011;13668;52.154;5.580;2023-06-10T05:15:04;3.35;;;2.92;;
24357;SDS011;13668;52.154;5.580;2023-06-10T05:17:30;3.25;;;2.30;;
24357;SDS011;13668;52.154;5.580;2023-06-10T05:19:56;3.00;;;2.67;;
24357;SDS011;13668;52.154;5.580;2023-06-10T05:22:22;6.22;;;3.42;;
24357;SDS011;13668;52.154;5.580;2023-06-10T05:24:52;3.92;;;2.67;;
24357;SDS011;13668;52.154;5.580;2023-06-10T05:27:18;3.50;;;2.75;;
24357;SDS011;13668;52.154;5.580;2023-06-10T05:29:44;3.60;;;2.67;;
24357;SDS011;13668;52.154;5.580;2023-06-10T05:32:10;3.38;;;2.72;;
24357;SDS011;13668;52.154;5.580;2023-06-10T05:34:36;3.90;;;2.83;;
24357;SDS011;13668;52.154;5.580;2023-06-10T05:37:02;3.63;;;2.65;;
24357;SDS011;13668;52.154;5.580;2023-06-10T05:39:28;4.03;;;2.95;;
24357;SDS011;13668;52.154;5.580;2023-06-10T05:41:54;3.03;;;2.67;;
24357;SDS011;13668;52.154;5.580;2023-06-10T05:44:20;3.92;;;2.80;;
24357;SDS011;13668;52.154;5.580;2023-06-10T05:46:46;2.70;;;2.38;;
24357;SDS011;13668;52.154;5.580;2023-06-10T05:49:12;3.55;;;2.85;;
24357;SDS011;13668;52.154;5.580;2023-06-10T05:51:38;3.92;;;2.38;;
24357;SDS011;13668;52.154;5.580;2023-06-10T05:54:04;2.70;;;2.40;;
24357;SDS011;13668;52.154;5.580;2023-06-10T05:56:30;2.63;;;2.40;;
24357;SDS011;13668;52.154;5.580;2023-06-10T05:58:56;5.25;;;2.67;;
24357;SDS011;13668;52.154;5.580;2023-06-10T06:01:22;4.78;;;2.53;;
24357;SDS011;13668;52.154;5.580;2023-06-10T06:03:48;2.92;;;2.33;;
24357;SDS011;13668;52.154;5.580;2023-06-10T06:06:14;4.15;;;2.53;;
24357;SDS011;13668;52.154;5.580;2023-06-10T06:08:40;4.78;;;3.08;;
24357;SDS011;13668;52.154;5.580;2023-06-10T06:11:06;3.80;;;2.40;;
24357;SDS011;13668;52.154;5.580;2023-06-10T06:13:32;3.45;;;2.10;;
24357;SDS011;13668;52.154;5.580;2023-06-10T06:15:58;4.13;;;2.10;;
24357;SDS011;13668;52.154;5.580;2023-06-10T06:18:24;2.93;;;2.70;;
24357;SDS011;13668;52.154;5.580;2023-06-10T06:20:50;2.60;;;2.38;;
24357;SDS011;13668;52.154;5.580;2023-06-10T06:23:16;2.38;;;2.00;;
24357;SDS011;13668;52.154;5.580;2023-06-10T06:25:42;4.00;;;1.77;;
24357;SDS011;13668;52.154;5.580;2023-06-10T06:28:09;2.78;;;2.00;;
24357;SDS011;13668;52.154;5.580;2023-06-10T06:30:35;3.97;;;2.55;;
24357;SDS011;13668;52.154;5.580;2023-06-10T06:33:01;3.72;;;2.55;;
24357;SDS011;13668;52.154;5.580;2023-06-10T06:35:30;3.97;;;2.65;;
24357;SDS011;13668;52.154;5.580;2023-06-10T06:37:57;2.95;;;1.92;;
24357;SDS011;13668;52.154;5.580;2023-06-10T06:40:23;3.95;;;2.45;;
24357;SDS011;13668;52.154;5.580;2023-06-10T06:42:49;2.72;;;2.22;;
24357;SDS011;13668;52.154;5.580;2023-06-10T06:45:16;4.97;;;2.20;;
24357;SDS011;13668;52.154;5.580;2023-06-10T06:47:41;2.38;;;2.17;;
24357;SDS011;13668;52.154;5.580;2023-06-10T06:50:09;2.70;;;1.98;;
24357;SDS011;13668;52.154;5.580;2023-06-10T06:52:35;2.97;;;2.15;;
24357;SDS011;13668;52.154;5.580;2023-06-10T06:55:01;3.63;;;2.35;;
24357;SDS011;13668;52.154;5.580;2023-06-10T06:57:27;1.73;;;1.60;;
24357;SDS011;13668;52.154;5.580;2023-06-10T06:59:53;3.72;;;2.25;;
24357;SDS011;13668;52.154;5.580;2023-06-10T07:02:18;2.88;;;2.30;;
24357;SDS011;13668;52.154;5.580;2023-06-10T07:04:44;4.35;;;1.90;;
24357;SDS011;13668;52.154;5.580;2023-06-10T07:07:13;2.85;;;1.98;;
24357;SDS011;13668;52.154;5.580;2023-06-10T07:09:39;3.42;;;2.45;;
24357;SDS011;13668;52.154;5.580;2023-06-10T07:12:05;2.83;;;1.77;;
24357;SDS011;13668;52.154;5.580;2023-06-10T07:14:31;2.65;;;2.00;;
24357;SDS011;13668;52.154;5.580;2023-06-10T07:16:57;2.40;;;1.85;;
24357;SDS011;13668;52.154;5.580;2023-06-10T07:19:23;2.45;;;2.20;;
24357;SDS011;13668;52.154;5.580;2023-06-10T07:21:49;2.53;;;1.75;;
24357;SDS011;13668;52.154;5.580;2023-06-10T07:24:15;2.92;;;2.15;;
24357;SDS011;13668;52.154;5.580;2023-06-10T07:26:41;2.45;;;2.25;;
24357;SDS011;13668;52.154;5.580;2023-06-10T07:29:07;2.60;;;1.98;;
24357;SDS011;13668;52.154;5.580;2023-06-10T07:31:33;2.90;;;2.40;;
24357;SDS011;13668;52.154;5.580;2023-06-10T07:33:59;3.05;;;2.08;;
24357;SDS011;13668;52.154;5.580;2023-06-10T07:36:25;2.20;;;1.92;;
24357;SDS011;13668;52.154;5.580;2023-06-10T07:38:53;2.50;;;2.15;;
24357;SDS011;13668;52.154;5.580;2023-06-10T07:41:20;2.72;;;1.83;;
24357;SDS011;13668;52.154;5.580;2023-06-10T07:43:46;1.92;;;1.73;;
24357;SDS011;13668;52.154;5.580;2023-06-10T07:46:12;1.95;;;1.80;;
24357;SDS011;13668;52.154;5.580;2023-06-10T07:48:37;5.10;;;2.58;;
24357;SDS011;13668;52.154;5.580;2023-06-10T07:51:03;1.58;;;1.48;;
24357;SDS011;13668;52.154;5.580;2023-06-10T07:53:30;2.28;;;1.75;;
24357;SDS011;13668;52.154;5.580;2023-06-10T07:55:56;3.95;;;1.77;;
24357;SDS011;13668;52.154;5.580;2023-06-10T07:58:22;2.33;;;2.08;;
24357;SDS011;13668;52.154;5.580;2023-06-10T08:00:48;1.80;;;1.63;;
24357;SDS011;13668;52.154;5.580;2023-06-10T08:03:13;3.70;;;1.90;;
24357;SDS011;13668;52.154;5.580;2023-06-10T08:05:39;2.00;;;1.90;;
24357;SDS011;13668;52.154;5.580;2023-06-10T08:08:06;1.90;;;1.70;;
24357;SDS011;13668;52.154;5.580;2023-06-10T08:10:31;3.25;;;1.77;;
24357;SDS011;13668;52.154;5.580;2023-06-10T08:12:58;1.80;;;1.70;;
24357;SDS011;13668;52.154;5.580;2023-06-10T08:15:24;2.08;;;1.88;;
24357;SDS011;13668;52.154;5.580;2023-06-10T08:17:50;2.53;;;2.20;;
24357;SDS011;13668;52.154;5.580;2023-06-10T08:20:16;2.90;;;2.22;;
24357;SDS011;13668;52.154;5.580;2023-06-10T08:22:42;1.92;;;1.73;;
24357;SDS011;13668;52.154;5.580;2023-06-10T08:25:09;2.00;;;1.70;;
24357;SDS011;13668;52.154;5.580;2023-06-10T08:27:35;1.63;;;1.42;;
24357;SDS011;13668;52.154;5.580;2023-06-10T08:30:01;1.88;;;1.77;;
24357;SDS011;13668;52.154;5.580;2023-06-10T08:32:27;2.28;;;2.03;;
24357;SDS011;13668;52.154;5.580;2023-06-10T08:34:53;2.85;;;2.15;;
24357;SDS011;13668;52.154;5.580;2023-06-10T08:37:19;2.45;;;2.20;;
24357;SDS011;13668;52.154;5.580;2023-06-10T08:39:45;1.88;;;1.70;;
24357;SDS011;13668;52.154;5.580;2023-06-10T08:42:25;2.47;;;1.75;;
24357;SDS011;13668;52.154;5.580;2023-06-10T08:44:53;2.40;;;1.70;;
24357;SDS011;13668;52.154;5.580;2023-06-10T08:47:24;2.55;;;1.75;;
24357;SDS011;13668;52.154;5.580;2023-06-10T08:49:52;2.47;;;1.90;;
24357;SDS011;13668;52.154;5.580;2023-06-10T08:52:21;2.15;;;1.75;;
24357;SDS011;13668;52.154;5.580;2023-06-10T08:54:52;4.00;;;1.92;;
24357;SDS011;13668;52.154;5.580;2023-06-10T08:57:20;3.15;;;1.92;;
24357;SDS011;13668;52.154;5.580;2023-06-10T08:59:47;2.00;;;1.80;;
24357;SDS011;13668;52.154;5.580;2023-06-10T09:02:13;2.35;;;1.90;;
24357;SDS011;13668;52.154;5.580;2023-06-10T09:04:42;1.50;;;1.40;;
24357;SDS011;13668;52.154;5.580;2023-06-10T09:07:09;2.67;;;1.92;;
24357;SDS011;13668;52.154;5.580;2023-06-10T09:09:35;1.85;;;1.42;;
24357;SDS011;13668;52.154;5.580;2023-06-10T09:12:01;2.30;;;1.73;;
24357;SDS011;13668;52.154;5.580;2023-06-10T09:14:28;1.70;;;1.60;;
24357;SDS011;13668;52.154;5.580;2023-06-10T09:16:54;2.17;;;1.85;;
24357;SDS011;13668;52.154;5.580;2023-06-10T09:19:23;1.70;;;1.60;;
24357;SDS011;13668;52.154;5.580;2023-06-10T09:21:49;2.33;;;2.00;;
24357;SDS011;13668;52.154;5.580;2023-06-10T09:24:15;2.03;;;1.70;;
24357;SDS011;13668;52.154;5.580;2023-06-10T09:26:42;2.15;;;1.70;;
24357;SDS011;13668;52.154;5.580;2023-06-10T09:29:09;2.58;;;2.10;;
24357;SDS011;13668;52.154;5.580;2023-06-10T09:31:36;2.88;;;1.88;;
24357;SDS011;13668;52.154;5.580;2023-06-10T09:34:10;2.00;;;1.80;;
24357;SDS011;13668;52.154;5.580;2023-06-10T09:36:37;1.67;;;1.58;;
24357;SDS011;13668;52.154;5.580;2023-06-10T09:39:03;1.30;;;1.20;;
24357;SDS011;13668;52.154;5.580;2023-06-10T09:41:39;2.38;;;1.70;;
24357;SDS011;13668;52.154;5.580;2023-06-10T09:44:15;1.77;;;1.50;;
24357;SDS011;13668;52.154;5.580;2023-06-10T09:46:42;1.95;;;1.85;;
24357;SDS011;13668;52.154;5.580;2023-06-10T09:49:08;1.73;;;1.55;;
24357;SDS011;13668;52.154;5.580;2023-06-10T09:51:36;2.03;;;1.70;;
24357;SDS011;13668;52.154;5.580;2023-06-10T09:54:03;2.25;;;1.50;;
24357;SDS011;13668;52.154;5.580;2023-06-10T09:56:33;3.75;;;1.65;;
24357;SDS011;13668;52.154;5.580;2023-06-10T09:58:59;1.60;;;1.50;;
24357;SDS011;13668;52.154;5.580;2023-06-10T10:01:25;2.58;;;1.60;;
24357;SDS011;13668;52.154;5.580;2023-06-10T10:03:51;1.98;;;1.88;;
24357;SDS011;13668;52.154;5.580;2023-06-10T10:06:18;2.42;;;2.13;;
24357;SDS011;13668;52.154;5.580;2023-06-10T10:08:46;1.73;;;1.63;;
24357;SDS011;13668;52.154;5.580;2023-06-10T10:11:12;2.25;;;2.05;;
24357;SDS011;13668;52.154;5.580;2023-06-10T10:13:40;2.08;;;1.70;;
24357;SDS011;13668;52.154;5.580;2023-06-10T10:16:09;2.00;;;1.83;;
24357;SDS011;13668;52.154;5.580;2023-06-10T10:18:38;2.50;;;1.90;;
24357;SDS011;13668;52.154;5.580;2023-06-10T10:21:05;1.73;;;1.63;;
24357;SDS011;13668;52.154;5.580;2023-06-10T10:23:34;2.55;;;1.60;;
24357;SDS011;13668;52.154;5.580;2023-06-10T10:26:02;2.50;;;1.92;;
24357;SDS011;13668;52.154;5.580;2023-06-10T10:28:34;2.10;;;1.90;;
24357;SDS011;13668;52.154;5.580;2023-06-10T10:31:06;4.57;;;1.88;;
24357;SDS011;13668;52.154;5.580;2023-06-10T10:36:21;2.13;;;1.75;;
24357;SDS011;13668;52.154;5.580;2023-06-10T10:38:47;1.70;;;1.60;;
24357;SDS011;13668;52.154;5.580;2023-06-10T10:41:16;2.15;;;1.95;;
24357;SDS011;13668;52.154;5.580;2023-06-10T10:43:43;2.03;;;1.73;;
24357;SDS011;13668;52.154;5.580;2023-06-10T10:46:14;2.67;;;1.83;;
24357;SDS011;13668;52.154;5.580;2023-06-10T10:48:43;1.83;;;1.73;;
24357;SDS011;13668;52.154;5.580;2023-06-10T10:51:09;2.17;;;1.98;;
24357;SDS011;13668;52.154;5.580;2023-06-10T10:53:39;1.85;;;1.75;;
24357;SDS011;13668;52.154;5.580;2023-06-10T10:56:15;2.20;;;1.60;;
24357;SDS011;13668;52.154;5.580;2023-06-10T10:58:52;2.58;;;2.17;;
24357;SDS011;13668;52.154;5.580;2023-06-10T11:01:26;2.00;;;1.90;;
24357;SDS011;13668;52.154;5.580;2023-06-10T11:04:06;1.73;;;1.30;;
24357;SDS011;13668;52.154;5.580;2023-06-10T11:06:33;2.78;;;1.88;;
24357;SDS011;13668;52.154;5.580;2023-06-10T11:08:59;1.98;;;1.80;;
24357;SDS011;13668;52.154;5.580;2023-06-10T11:11:26;1.90;;;1.65;;
24357;SDS011;13668;52.154;5.580;2023-06-10T11:16:29;1.63;;;1.52;;
24357;SDS011;13668;52.154;5.580;2023-06-10T11:18:55;3.85;;;1.70;;
24357;SDS011;13668;52.154;5.580;2023-06-10T11:21:24;2.78;;;2.22;;
24357;SDS011;13668;52.154;5.580;2023-06-10T11:23:50;1.73;;;1.63;;
24357;SDS011;13668;52.154;5.580;2023-06-10T11:31:19;2.67;;;2.20;;
24357;SDS011;13668;52.154;5.580;2023-06-10T11:33:48;4.30;;;1.98;;
24357;SDS011;13668;52.154;5.580;2023-06-10T11:36:17;3.97;;;2.10;;
24357;SDS011;13668;52.154;5.580;2023-06-10T11:38:43;2.17;;;1.70;;
24357;SDS011;13668;52.154;5.580;2023-06-10T11:41:10;2.17;;;1.98;;
24357;SDS011;13668;52.154;5.580;2023-06-10T11:43:37;2.60;;;2.00;;
24357;SDS011;13668;52.154;5.580;2023-06-10T11:46:06;2.00;;;1.75;;
24357;SDS011;13668;52.154;5.580;2023-06-10T11:48:33;2.58;;;1.77;;
24357;SDS011;13668;52.154;5.580;2023-06-10T11:50:59;3.22;;;2.22;;
24357;SDS011;13668;52.154;5.580;2023-06-10T11:53:25;2.78;;;1.70;;
24357;SDS011;13668;52.154;5.580;2023-06-10T11:55:51;2.60;;;1.80;;
24357;SDS011;13668;52.154;5.580;2023-06-10T11:58:19;3.10;;;2.55;;
24357;SDS011;13668;52.154;5.580;2023-06-10T12:03:11;2.28;;;1.80;;
24357;SDS011;13668;52.154;5.580;2023-06-10T12:05:37;2.05;;;1.85;;
24357;SDS011;13668;52.154;5.580;2023-06-10T12:08:10;3.65;;;2.55;;
24357;SDS011;13668;52.154;5.580;2023-06-10T12:10:42;4.18;;;2.63;;
24357;SDS011;13668;52.154;5.580;2023-06-10T12:13:09;2.45;;;2.25;;
24357;SDS011;13668;52.154;5.580;2023-06-10T12:15:35;2.42;;;2.10;;
24357;SDS011;13668;52.154;5.580;2023-06-10T12:18:01;2.97;;;2.45;;
24357;SDS011;13668;52.154;5.580;2023-06-10T12:20:28;2.97;;;2.15;;
24357;SDS011;13668;52.154;5.580;2023-06-10T12:22:55;2.40;;;2.10;;
24357;SDS011;13668;52.154;5.580;2023-06-10T12:25:24;2.60;;;2.40;;
24357;SDS011;13668;52.154;5.580;2023-06-10T12:27:52;2.40;;;1.85;;
24357;SDS011;13668;52.154;5.580;2023-06-10T12:30:19;3.60;;;2.10;;
24357;SDS011;13668;52.154;5.580;2023-06-10T12:32:45;2.13;;;1.92;;
24357;SDS011;13668;52.154;5.580;2023-06-10T12:35:12;2.55;;;2.22;;
24357;SDS011;13668;52.154;5.580;2023-06-10T12:37:41;2.33;;;2.13;;
24357;SDS011;13668;52.154;5.580;2023-06-10T12:40:08;2.17;;;1.83;;
24357;SDS011;13668;52.154;5.580;2023-06-10T12:42:35;2.60;;;2.08;;
24357;SDS011;13668;52.154;5.580;2023-06-10T12:45:02;2.58;;;2.20;;
24357;SDS011;13668;52.154;5.580;2023-06-10T12:47:29;3.78;;;2.40;;
24357;SDS011;13668;52.154;5.580;2023-06-10T12:49:57;2.65;;;1.98;;
24357;SDS011;13668;52.154;5.580;2023-06-10T12:52:23;4.80;;;2.40;;
24357;SDS011;13668;52.154;5.580;2023-06-10T12:54:50;3.92;;;1.98;;
24357;SDS011;13668;52.154;5.580;2023-06-10T12:57:16;2.90;;;2.03;;
24357;SDS011;13668;52.154;5.580;2023-06-10T12:59:43;2.08;;;1.92;;
24357;SDS011;13668;52.154;5.580;2023-06-10T13:02:17;1.83;;;1.65;;
24357;SDS011;13668;52.154;5.580;2023-06-10T13:04:43;1.98;;;1.80;;
24357;SDS011;13668;52.154;5.580;2023-06-10T13:07:09;2.33;;;2.13;;
24357;SDS011;13668;52.154;5.580;2023-06-10T13:09:35;2.58;;;2.38;;
24357;SDS011;13668;52.154;5.580;2023-06-10T13:12:02;3.17;;;2.30;;
24357;SDS011;13668;52.154;5.580;2023-06-10T13:14:28;2.35;;;2.15;;
24357;SDS011;13668;52.154;5.580;2023-06-10T13:16:54;2.60;;;2.40;;
24357;SDS011;13668;52.154;5.580;2023-06-10T13:19:20;2.42;;;2.22;;
24357;SDS011;13668;52.154;5.580;2023-06-10T13:21:47;2.33;;;2.10;;
24357;SDS011;13668;52.154;5.580;2023-06-10T13:24:13;4.63;;;2.67;;
24357;SDS011;13668;52.154;5.580;2023-06-10T13:26:39;2.40;;;2.20;;
24357;SDS011;13668;52.154;5.580;2023-06-10T13:29:05;2.50;;;2.20;;
24357;SDS011;13668;52.154;5.580;2023-06-10T13:31:33;2.30;;;1.98;;
24357;SDS011;13668;52.154;5.580;2023-06-10T13:33:59;3.70;;;2.97;;
24357;SDS011;13668;52.154;5.580;2023-06-10T13:36:25;1.85;;;1.75;;
24357;SDS011;13668;52.154;5.580;2023-06-10T13:38:51;5.78;;;2.80;;
24357;SDS011;13668;52.154;5.580;2023-06-10T13:41:20;2.20;;;2.10;;
24357;SDS011;13668;52.154;5.580;2023-06-10T13:43:46;2.30;;;2.10;;
24357;SDS011;13668;52.154;5.580;2023-06-10T13:46:12;2.55;;;2.35;;
24357;SDS011;13668;52.154;5.580;2023-06-10T13:48:38;3.45;;;2.50;;
24357;SDS011;13668;52.154;5.580;2023-06-10T13:51:05;1.95;;;1.85;;
24357;SDS011;13668;52.154;5.580;2023-06-10T13:53:31;2.88;;;1.90;;
24357;SDS011;13668;52.154;5.580;2023-06-10T13:55:57;2.92;;;2.47;;
24357;SDS011;13668;52.154;5.580;2023-06-10T13:58:23;2.33;;;2.10;;
24357;SDS011;13668;52.154;5.580;2023-06-10T14:00:50;2.85;;;1.83;;
24357;SDS011;13668;52.154;5.580;2023-06-10T14:03:16;2.78;;;2.03;;
24357;SDS011;13668;52.154;5.580;2023-06-10T14:05:42;1.98;;;1.77;;
24357;SDS011;13668;52.154;5.580;2023-06-10T14:08:08;2.78;;;2.30;;
24357;SDS011;13668;52.154;5.580;2023-06-10T14:10:34;2.17;;;1.98;;
24357;SDS011;13668;52.154;5.580;2023-06-10T14:13:00;3.13;;;2.83;;
24357;SDS011;13668;52.154;5.580;2023-06-10T14:15:26;2.67;;;2.13;;
24357;SDS011;13668;52.154;5.580;2023-06-10T14:17:52;2.03;;;1.85;;
24357;SDS011;13668;52.154;5.580;2023-06-10T14:20:18;1.80;;;1.63;;
24357;SDS011;13668;52.154;5.580;2023-06-10T14:22:44;2.10;;;1.90;;
24357;SDS011;13668;52.154;5.580;2023-06-10T14:25:10;2.78;;;1.98;;
24357;SDS011;13668;52.154;5.580;2023-06-10T14:27:36;2.20;;;1.98;;
24357;SDS011;13668;52.154;5.580;2023-06-10T14:30:02;2.13;;;2.03;;
24357;SDS011;13668;52.154;5.580;2023-06-10T14:32:29;2.17;;;1.98;;
24357;SDS011;13668;52.154;5.580;2023-06-10T14:34:55;2.53;;;2.30;;
24357;SDS011;13668;52.154;5.580;2023-06-10T14:37:21;2.72;;;2.28;;
24357;SDS011;13668;52.154;5.580;2023-06-10T14:39:47;2.33;;;2.05;;
24357;SDS011;13668;52.154;5.580;2023-06-10T14:42:13;2.13;;;1.92;;
24357;SDS011;13668;52.154;5.580;2023-06-10T14:44:39;3.47;;;1.65;;
24357;SDS011;13668;52.154;5.580;2023-06-10T14:47:05;2.33;;;2.10;;
24357;SDS011;13668;52.154;5.580;2023-06-10T14:49:32;2.38;;;1.75;;
24357;SDS011;13668;52.154;5.580;2023-06-10T14:51:58;1.95;;;1.73;;
24357;SDS011;13668;52.154;5.580;2023-06-10T14:54:23;2.38;;;2.17;;
24357;SDS011;13668;52.154;5.580;2023-06-10T14:56:49;2.58;;;2.20;;
24357;SDS011;13668;52.154;5.580;2023-06-10T14:59:15;5.97;;;2.85;;
24357;SDS011;13668;52.154;5.580;2023-06-10T15:01:41;2.20;;;2.00;;
24357;SDS011;13668;52.154;5.580;2023-06-10T15:04:07;3.30;;;2.50;;
24357;SDS011;13668;52.154;5.580;2023-06-10T15:06:33;2.00;;;1.75;;